Wednesday, August 15, 2018, 10:59 PM CDT
Back to Local

KMHK, Manhattan Regional Airport

Location: Ogden, KS, United States Lat: 39.133
Local Time: 10:59 PM CDT ( 3:59 GMT) Lon: -96.683
Time Zone: US/Central Elev: 1056 ft

Show me the last for .
Show Decoded

2018-08-15 21:52 METAR KMHK 160252Z AUTO 00000KT 10SM CLR 23/21 A2993 RMK AO2 SLP126 T02330211
                 53017 =
2018-08-15 20:52 METAR KMHK 160152Z 29003KT 10SM CLR 26/21 A2990 RMK AO2 SLP117 T02560211 =
2018-08-15 19:52 METAR KMHK 160052Z 00000KT 10SM FEW060 27/21 A2988 RMK AO2 SLP109 T02720211 =
2018-08-15 18:52 METAR KMHK 152352Z 34003KT 10SM SCT055 29/20 A2988 RMK AO2 SLP107 T02940200
                 10294 20228 55002 =
2018-08-15 17:52 METAR KMHK 152252Z 00000KT 10SM BKN055 28/19 A2987 RMK AO2 SLP107 T02830194 =
2018-08-15 16:52 METAR KMHK 152152Z 09004KT 10SM FEW048 29/20 A2988 RMK AO2 SLP107 T02890200 =
2018-08-15 15:52 METAR KMHK 152052Z 00000KT 10SM SCT035 28/21 A2988 RMK AO2 SLP110 T02830206
                 58014 =
2018-08-15 14:52 METAR KMHK 151952Z VRB03KT 10SM FEW026 BKN041 27/21 A2990 RMK AO2 SLP114
                 T02670211 =
2018-08-15 13:52 METAR KMHK 151852Z 00000KT 10SM BKN040 25/21 A2992 RMK AO2 SLP122 T02500206 =
2018-08-15 13:06 METAR KMHK 151806Z VRB04KT 10SM SCT025 OVC036 24/21 A2992 =
2018-08-15 12:52 METAR KMHK 151752Z 36003KT 10SM BKN025 BKN032 OVC040 23/21 A2993 RMK AO2
                 RAB13E24 SLP126 P0000 60002 T02280206 10244 20206 53000 =
2018-08-15 12:49 METAR KMHK 151749Z 36005KT 10SM BKN025 BKN032 OVC040 23/21 A2993 RMK AO2
                 RAB13E24 P0000 =
2018-08-15 12:38 METAR KMHK 151738Z VRB04KT 10SM FEW016 BKN033 OVC042 23/21 A2992 RMK AO2
                 RAB13E24 P0000 T02330206 =
2018-08-15 12:22 METAR KMHK 151722Z 33004KT 10SM -RA SCT015 BKN025 OVC038 23/21 A2992 RMK AO2
                 RAB13 P0000 T02280206 =
2018-08-15 11:52 METAR KMHK 151652Z 05005KT 10SM FEW011 OVC033 23/21 A2992 RMK AO2 SLP125
                 T02330211 =
2018-08-15 11:49 METAR KMHK 151649Z VRB05KT 10SM SCT011 OVC033 23/21 A2993 RMK AO2 =
2018-08-15 11:41 METAR KMHK 151641Z 03004KT 10SM BKN010 BKN030 OVC035 23/21 A2993 RMK AO2
                 T02330211 =
2018-08-15 11:08 METAR KMHK 151608Z VRB05KT 10SM FEW009 SCT028 OVC033 23/21 A2992 RMK AO2
                 T02280211 =
2018-08-15 10:52 METAR KMHK 151552Z 31003KT 5SM BR FEW007 BKN025 OVC033 22/21 A2992 RMK AO2
                 RAE1458B06E49 SLP125 P0001 T02220211 =
2018-08-15 10:50 METAR KMHK 151550Z 34004KT 5SM BR FEW007 BKN014 OVC033 22/21 A2992 RMK AO2
                 RAE1458B06E49 P0001 =
2018-08-15 10:40 METAR KMHK 151540Z 34004KT 4SM -RA BR SCT014 OVC024 22/21 A2992 RMK AO2
                 RAE1458B06 P0001 T02170211 =
2018-08-15 10:16 METAR KMHK 151516Z 32003KT 4SM -RA BR OVC012 21/21 A2991 =
2018-08-15 10:09 METAR KMHK 151509Z 28004KT 1 3/4SM -RA BR OVC012 21/21 A2991 RMK AO2 RAE1458B06
                 P0001 T02110206 =
2018-08-15 09:58 METAR KMHK 151458Z 00000KT 4SM BR FEW008 OVC014 21/21 A2991 =
2018-08-15 09:52 METAR KMHK 151452Z 00000KT 2 1/2SM -RA BR SCT008 OVC015 21/21 A2991 RMK AO2
                 RAB15 SLP121 P0001 60001 T02110206 51006 =
2018-08-15 09:43 METAR KMHK 151443Z 00000KT 2SM -RA BR BKN008 OVC014 21/21 A2991 RMK AO2 RAB15
                 CIG 005V010 P0001 T02110206 =
2018-08-15 09:20 METAR KMHK 151420Z 00000KT 3SM -RA BR BKN008 OVC014 21/21 A2991 RMK AO2 RAB15
                 CIG 005V011 P0001 T02110206 =
2018-08-15 09:17 METAR KMHK 151417Z 00000KT 2 1/2SM -RA BR SCT008 OVC012 21/21 A2991 RMK AO2
                 RAB15 P0001 T02110206 =
2018-08-15 09:12 METAR KMHK 151412Z 00000KT 3SM BR BKN010 OVC014 21/21 A2991 RMK AO2 CIG 006V013
                 T02110206 =
2018-08-15 08:52 METAR KMHK 151352Z VRB03KT 4SM BR BKN009 OVC015 21/20 A2990 RMK AO2 CIG 007V013
                 SLP119 T02110200 =
2018-08-15 08:42 METAR KMHK 151342Z 00000KT 8SM BKN010 OVC017 21/20 A2990 RMK AO2 CIG 008V012
                 T02110200 =
2018-08-15 08:26 METAR KMHK 151326Z 00000KT 9SM BKN009 OVC017 21/20 A2990 RMK AO2 CIG 008V014
                 T02110200 =
2018-08-15 08:03 METAR KMHK 151303Z 00000KT 10SM OVC019 21/20 A2990 RMK AO2 T02110200 =
2018-08-15 07:52 METAR KMHK 151252Z 00000KT 9SM BKN020 21/19 A2989 RMK AO2 SLP114 T02110194 =
2018-08-15 07:42 METAR KMHK 151242Z 30003KT 9SM BKN019 21/19 A2989 RMK AO2 T02110194 =
2018-08-15 06:52 METAR KMHK 151152Z 00000KT 10SM SCT043 BKN055 21/19 A2988 RMK AO2 RAE08 SLP109
                 P0000 60000 70040 T02060194 10222 20206 52003 =
2018-08-15 06:32 METAR KMHK 151132Z AUTO VRB03KT 10SM SCT022 SCT043 OVC060 21/20 A2988 RMK AO2
                 RAE08 P0000 T02060200 =
2018-08-15 06:07 METAR KMHK 151107Z AUTO 35004KT 10SM -RA SCT008 BKN021 21/20 A2987 RMK AO2 P0000
                 T02110200 =
2018-08-15 05:52 METAR KMHK 151052Z AUTO 34005KT 5SM -RA BR OVC007 21/21 A2987 RMK AO2 RAB43 CIG
                 006V010 SLP106 P0000 T02110206 =
2018-08-15 05:23 METAR KMHK 151023Z AUTO 33003KT 8SM BKN007 OVC012 22/21 A2987 RMK AO2 T02220211
                 =
2018-08-15 04:52 METAR KMHK 150952Z AUTO VRB03KT 10SM BKN010 BKN026 OVC043 22/22 A2987 RMK AO2
                 SLP105 T02220217 =
2018-08-15 04:47 METAR KMHK 150947Z AUTO 00000KT 10SM BKN009 BKN026 OVC043 22/22 A2987 RMK AO2 =
2018-08-15 04:43 METAR KMHK 150943Z AUTO 00000KT 10SM SCT009 BKN030 OVC065 22/22 A2987 RMK AO2
                 T02220222 =
2018-08-15 03:52 METAR KMHK 150852Z AUTO 34003KT 9SM FEW014 OVC024 22/22 A2987 RMK AO2 SLP103
                 T02220217 52004 =
2018-08-15 03:40 METAR KMHK 150840Z AUTO 00000KT 10SM SCT014 OVC020 22/22 A2987 RMK AO2 T02220217
                 =
2018-08-15 03:13 METAR KMHK 150813Z AUTO 00000KT 10SM SCT007 OVC016 22/22 A2987 RMK AO2 T02170217
                 =
2018-08-15 02:52 METAR KMHK 150752Z AUTO 00000KT 10SM OVC016 22/22 A2986 RMK AO2 SLP103 T02220217
                 =
2018-08-15 02:00 METAR KMHK 150700Z AUTO 33003KT 10SM FEW009 BKN016 OVC090 22/22 A2986 =
2018-08-15 01:52 METAR KMHK 150652Z AUTO 31003KT 10SM BKN016 BKN021 OVC090 22/22 A2986 RMK AO2
                 SLP102 T02170217 =
2018-08-15 01:20 METAR KMHK 150620Z AUTO 00000KT 10SM BKN016 22/22 A2986 RMK AO2 T02170217 =
2018-08-15 00:52 METAR KMHK 150552Z AUTO 00000KT 10SM CLR 22/21 A2986 RMK AO2 SLP100 60027
                 T02170211 10267 20217 403000211 55001 =
2018-08-14 23:52 METAR KMHK 150452Z AUTO 00000KT 10SM OVC065 22/21 A2984 RMK AO2 RAE12 SLP096
                 P0001 T02220211 =

Support USWX by starting your Amazon purchase here.